Time;durP1;ratioP1;P1;durP2;ratioP2;P2;SDS_P1;SDS_P2;PMS_P1;PMS_P2;Temp;Humidity;BMP_temperature;BMP_pressure;BME280_temperature;BME280_humidity;BME280_pressure;Samples;Min_cycle;Max_cycle;Signal;HPM_P1;HPM_P2
2023/04/10 00:00:41;;;;;;;28.73;25.50;;;;;19.90;101113.00;;;;2080016;28;20218;-73
2023/04/10 00:01:42;;;;;;;24.75;21.95;;;;;19.90;101104.00;;;;2078992;28;20665;-73
2023/04/10 00:02:43;;;;;;;29.73;26.63;;;;;19.90;101087.00;;;;2080076;28;20218;-73
2023/04/10 00:03:43;;;;;;;25.40;22.75;;;;;19.90;101104.00;;;;2078589;28;20274;-73
2023/04/10 00:04:44;;;;;;;26.70;23.80;;;;;19.90;101092.00;;;;2080185;28;20754;-73
2023/04/10 00:05:45;;;;;;;25.63;22.85;;;;;19.90;101100.00;;;;2080101;28;20839;-73
2023/04/10 00:06:47;;;;;;;24.20;21.60;;;;;19.90;101103.00;;;;2079267;28;20283;-73
2023/04/10 00:07:48;;;;;;;25.98;22.67;;;;;19.90;101093.00;;;;2080083;28;20346;-73
2023/04/10 00:08:48;;;;;;;27.77;24.67;;;;;19.90;101092.00;;;;2079635;28;20283;-73
2023/04/10 00:09:48;;;;;;;26.27;22.83;;;;;19.90;101100.00;;;;2080175;28;20210;-73
2023/04/10 00:10:49;;;;;;;23.87;21.40;;;;;19.90;101093.00;;;;2079642;28;20225;-73
2023/04/10 00:11:49;;;;;;;26.77;23.10;;;;;19.90;101027.00;;;;2079684;28;20697;-73
2023/04/10 00:12:50;;;;;;;24.50;22.00;;;;;19.90;101090.00;;;;2078912;28;20281;-73
2023/04/10 00:13:50;;;;;;;25.70;23.00;;;;;19.90;101084.00;;;;2078912;28;20639;-73
2023/04/10 00:14:50;;;;;;;23.63;20.97;;;;;19.90;101091.00;;;;2079662;28;20217;-73
2023/04/10 00:15:51;;;;;;;23.90;21.40;;;;;19.90;101091.00;;;;2079415;28;20214;-73
2023/04/10 00:16:51;;;;;;;24.30;21.70;;;;;19.90;101071.00;;;;2080198;28;20287;-73
2023/04/10 00:17:53;;;;;;;24.37;21.77;;;;;19.90;101089.00;;;;2078980;28;20221;-73
2023/04/10 00:18:54;;;;;;;23.23;20.75;;;;;19.90;101085.00;;;;2080140;28;20248;-73
2023/04/10 00:19:54;;;;;;;23.13;20.67;;;;;19.90;101081.00;;;;2079092;28;20259;-73
2023/04/10 00:20:55;;;;;;;22.90;20.43;;;;;19.80;101077.00;;;;2085383;28;20196;-73
2023/04/10 00:21:55;;;;;;;25.80;19.70;;;;;19.90;101083.00;;;;2079698;28;20232;-73
2023/04/10 00:22:56;;;;;;;23.90;21.10;;;;;19.80;101065.00;;;;2083979;28;20287;-73
2023/04/10 00:23:56;;;;;;;22.37;20.10;;;;;19.80;101078.00;;;;2080825;28;20243;-73
2023/04/10 00:24:56;;;;;;;22.83;20.37;;;;;19.90;101079.00;;;;2079333;28;20220;-73
2023/04/10 00:25:57;;;;;;;21.63;19.43;;;;;19.90;101076.00;;;;2080291;28;20206;-73
2023/04/10 00:26:57;;;;;;;22.03;19.53;;;;;19.90;101073.00;;;;2079608;28;20255;-73
2023/04/10 00:27:58;;;;;;;21.70;19.43;;;;;19.80;101072.00;;;;2080083;28;20455;-73
2023/04/10 00:28:58;;;;;;;21.60;19.40;;;;;19.80;101078.00;;;;2080006;28;20204;-73
2023/04/10 00:29:59;;;;;;;22.23;19.93;;;;;19.80;101074.00;;;;2079475;28;20237;-73
2023/04/10 00:30:59;;;;;;;21.93;19.73;;;;;19.80;101069.00;;;;2080180;28;20209;-73
2023/04/10 00:31:59;;;;;;;21.73;19.43;;;;;19.80;101071.00;;;;2081690;28;20624;-73
2023/04/10 00:33:00;;;;;;;21.47;19.23;;;;;19.80;101061.00;;;;2080145;28;20629;-73
2023/04/10 00:34:00;;;;;;;22.67;20.33;;;;;19.80;101062.00;;;;2079305;28;20652;-73
2023/04/10 00:35:00;;;;;;;21.73;19.50;;;;;19.80;101063.00;;;;2079936;28;20846;-73
2023/04/10 00:36:01;;;;;;;21.20;18.90;;;;;19.80;101063.00;;;;2080076;28;20727;-73
2023/04/10 00:37:01;;;;;;;21.87;19.67;;;;;19.80;101055.00;;;;2078932;28;20783;-73
2023/04/10 00:38:01;;;;;;;20.30;18.30;;;;;19.80;101057.00;;;;2079980;28;20690;-72
2023/04/10 00:39:02;;;;;;;19.77;17.83;;;;;19.80;101071.00;;;;2077774;28;20287;-73
2023/04/10 00:40:03;;;;;;;19.00;17.10;;;;;19.80;101061.00;;;;2078962;28;20213;-73
2023/04/10 00:41:04;;;;;;;19.75;17.63;;;;;19.80;101054.00;;;;2079204;28;20351;-73
2023/04/10 00:42:08;;;;;;;19.33;17.43;;;;;19.80;101057.00;;;;2078475;28;20217;-73
2023/04/10 00:43:08;;;;;;;19.42;17.40;;;;;19.80;101052.00;;;;2075778;28;20505;-73
2023/04/10 00:44:08;;;;;;;18.50;16.60;;;;;19.80;101053.00;;;;2079257;28;20260;-73
2023/04/10 00:45:09;;;;;;;18.77;16.77;;;;;19.80;101050.00;;;;2080078;28;20214;-73
2023/04/10 00:46:10;;;;;;;19.23;17.30;;;;;19.80;101057.00;;;;2079153;28;20575;-73
2023/04/10 00:47:11;;;;;;;19.37;17.30;;;;;19.80;101053.00;;;;2079257;28;20335;-73
2023/04/10 00:48:12;;;;;;;18.13;16.33;;;;;19.80;101062.00;;;;2078319;28;20221;-73
2023/04/10 00:49:12;;;;;;;19.07;17.00;;;;;19.80;101061.00;;;;2079352;28;20213;-73
2023/04/10 00:50:12;;;;;;;18.57;16.77;;;;;19.80;101052.00;;;;2079542;28;20267;-73
2023/04/10 00:51:13;;;;;;;17.93;16.13;;;;;19.80;101044.00;;;;2081527;28;20237;-73
2023/04/10 00:52:13;;;;;;;18.00;16.10;;;;;19.80;101059.00;;;;2078747;28;20213;-73
2023/04/10 00:53:13;;;;;;;19.83;16.93;;;;;19.80;101055.00;;;;2077704;28;20202;-73
2023/04/10 00:54:14;;;;;;;19.70;17.10;;;;;19.80;101022.00;;;;2070936;28;20213;-73
2023/04/10 00:55:14;;;;;;;18.50;16.60;;;;;19.80;101046.00;;;;2070416;28;21452;-73
2023/04/10 00:56:15;;;;;;;19.00;16.47;;;;;19.80;101027.00;;;;2079325;28;20226;-72
2023/04/10 00:57:16;;;;;;;17.47;15.67;;;;;19.80;101057.00;;;;2079084;28;20209;-73
2023/04/10 00:58:16;;;;;;;17.60;15.70;;;;;19.80;101050.00;;;;2078739;28;20281;-73
2023/04/10 00:59:17;;;;;;;18.83;16.40;;;;;19.80;101047.00;;;;2079157;28;20275;-73
2023/04/10 01:00:17;;;;;;;17.20;15.60;;;;;19.80;101038.00;;;;2083286;28;20217;-73
2023/04/10 01:01:17;;;;;;;17.60;15.90;;;;;19.80;101050.00;;;;2081001;28;20217;-73
2023/04/10 01:02:18;;;;;;;17.07;15.40;;;;;19.80;101051.00;;;;2078484;28;20201;-73
2023/04/10 01:03:19;;;;;;;17.00;15.30;;;;;19.80;101044.00;;;;2079712;28;20217;-73
2023/04/10 01:04:20;;;;;;;16.27;14.73;;;;;19.70;101008.00;;;;2078752;28;20825;-73
2023/04/10 01:05:20;;;;;;;17.35;15.65;;;;;19.70;101038.00;;;;2078127;28;20291;-73
2023/04/10 01:06:35;;;;;;;16.10;14.50;;;;;19.70;101025.00;;;;2079890;28;20824;-73
2023/04/10 01:08:03;;;;;;;16.40;14.75;;;;;19.70;101047.00;;;;2078049;28;20237;-73
2023/04/10 01:09:36;;;;;;;17.52;15.32;;;;;19.70;101046.00;;;;2078589;28;20647;-73
2023/04/10 01:10:52;;;;;;;17.02;15.30;;;;;19.70;101037.00;;;;2060564;28;20218;-73
2023/04/10 01:11:53;;;;;;;16.83;15.13;;;;;19.70;101041.00;;;;2075671;28;20296;-73
2023/04/10 01:13:15;;;;;;;15.25;13.80;;;;;19.70;101045.00;;;;2079042;28;20786;-73
2023/04/10 01:14:40;;;;;;;17.02;15.10;;;;;19.70;101049.00;;;;2078263;28;20224;-73
2023/04/10 01:16:10;;;;;;;15.95;14.35;;;;;19.70;101051.00;;;;2079058;28;20217;-73
2023/04/10 01:17:13;;;;;;;15.75;14.15;;;;;19.70;101044.00;;;;2077946;28;20243;-73
2023/04/10 01:18:21;;;;;;;15.13;13.68;;;;;19.70;101046.00;;;;2078951;28;20208;-73
2023/04/10 01:19:49;;;;;;;15.45;13.85;;;;;19.70;101046.00;;;;2077716;28;20592;-73
2023/04/10 01:20:50;;;;;;;15.13;13.73;;;;;19.70;101039.00;;;;2068158;28;20210;-73
2023/04/10 01:21:50;;;;;;;16.47;14.87;;;;;19.70;101046.00;;;;2078640;28;20209;-73
2023/04/10 01:23:20;;;;;;;14.30;12.90;;;;;19.70;101038.00;;;;2078941;28;20298;-73
2023/04/10 01:24:30;;;;;;;14.55;13.05;;;;;19.70;101042.00;;;;2082245;28;20221;-73
2023/04/10 01:25:42;;;;;;;13.43;12.23;;;;;19.70;101023.00;;;;2078935;28;20221;-73
2023/04/10 01:27:00;;;;;;;15.15;13.65;;;;;19.70;101039.00;;;;2080382;28;20309;-73
2023/04/10 01:28:09;;;;;;;14.23;12.80;;;;;19.70;101033.00;;;;2077113;28;20233;-73
2023/04/10 01:29:12;;;;;;;14.48;13.07;;;;;19.70;101033.00;;;;2067688;28;20630;-73
2023/04/10 01:30:14;;;;;;;18.60;14.65;;;;;19.70;101032.00;;;;2070300;28;20277;-73
2023/04/10 01:31:18;;;;;;;14.65;13.15;;;;;19.70;101025.00;;;;2069648;28;20214;-73
2023/04/10 01:32:19;;;;;;;13.90;12.50;;;;;19.70;101032.00;;;;2086379;28;20625;-73
2023/04/10 01:33:21;;;;;;;13.80;12.48;;;;;19.70;101020.00;;;;2077967;28;20221;-73
2023/04/10 01:34:24;;;;;;;14.52;13.13;;;;;19.60;101012.00;;;;2078965;28;20213;-73
2023/04/10 01:35:25;;;;;;;13.27;12.07;;;;;19.70;100973.00;;;;2070202;28;20269;-72
2023/04/10 01:36:27;;;;;;;15.23;13.80;;;;;19.60;101016.00;;;;2078926;28;20216;-73
2023/04/10 01:37:29;;;;;;;14.32;12.95;;;;;19.70;101009.00;;;;2077937;28;20480;-73
2023/04/10 01:38:30;;;;;;;15.10;12.95;;;;;19.60;100982.00;;;;2078808;28;20209;-73
2023/04/10 01:39:30;;;;;;;14.40;13.00;;;;;19.70;101004.00;;;;2078646;28;20704;-73
2023/04/10 01:40:30;;;;;;;13.80;12.50;;;;;19.70;101000.00;;;;2078064;28;20220;-73
2023/04/10 01:41:31;;;;;;;13.63;12.27;;;;;19.70;101009.00;;;;2070620;28;20263;-73
2023/04/10 01:42:33;;;;;;;13.23;12.00;;;;;19.70;101005.00;;;;2069710;28;20222;-73
2023/04/10 01:43:34;;;;;;;13.05;11.75;;;;;19.60;100999.00;;;;2078647;28;20354;-73
2023/04/10 01:44:35;;;;;;;13.25;11.95;;;;;19.60;100999.00;;;;2078922;28;20224;-73
2023/04/10 01:45:35;;;;;;;14.07;12.67;;;;;19.60;100999.00;;;;2081907;28;20216;-73
2023/04/10 01:46:36;;;;;;;13.10;11.80;;;;;19.60;100981.00;;;;2070612;28;20210;-73
2023/04/10 01:47:36;;;;;;;13.43;12.13;;;;;19.60;101001.00;;;;2069566;28;20233;-73
2023/04/10 01:48:36;;;;;;;13.87;12.47;;;;;19.60;100998.00;;;;2070758;28;20213;-73
2023/04/10 01:49:41;;;;;;;14.10;12.70;;;;;19.60;100996.00;;;;2069648;28;20267;-73
2023/04/10 01:50:41;;;;;;;13.77;12.48;;;;;19.60;100981.00;;;;2072267;28;20356;-73
2023/04/10 01:51:42;;;;;;;12.73;11.43;;;;;19.60;100997.00;;;;2072018;28;20287;-73
2023/04/10 01:52:42;;;;;;;12.63;11.43;;;;;19.60;100959.00;;;;2063976;28;20237;-73
2023/04/10 01:53:46;;;;;;;13.17;11.87;;;;;19.60;100989.00;;;;2055521;28;20204;-73
2023/04/10 01:54:47;;;;;;;12.57;11.30;;;;;19.60;100994.00;;;;2071888;28;20221;-73
2023/04/10 01:55:48;;;;;;;13.45;12.15;;;;;19.60;100973.00;;;;2080534;28;20220;-73
2023/04/10 01:56:48;;;;;;;12.20;11.00;;;;;19.60;100995.00;;;;2071478;28;20665;-73
2023/04/10 01:57:48;;;;;;;13.63;12.33;;;;;19.60;101002.00;;;;2080419;28;20229;-73
2023/04/10 01:58:49;;;;;;;12.00;10.90;;;;;19.60;100972.00;;;;2071190;28;20213;-73
2023/04/10 01:59:50;;;;;;;12.50;11.30;;;;;19.60;101001.00;;;;2064143;28;20293;-72
2023/04/10 02:00:50;;;;;;;12.90;11.70;;;;;19.60;100997.00;;;;2080194;28;20292;-73
2023/04/10 02:01:57;;;;;;;12.23;11.03;;;;;19.60;101001.00;;;;2080316;28;20213;-73
2023/04/10 02:02:57;;;;;;;12.43;11.23;;;;;19.60;100992.00;;;;2080725;28;20623;-73
2023/04/10 02:03:58;;;;;;;12.90;11.60;;;;;19.60;100990.00;;;;2082905;28;20208;-72
2023/04/10 02:04:58;;;;;;;11.10;10.00;;;;;19.60;100996.00;;;;2081031;28;20229;-73
2023/04/10 02:06:21;;;;;;;11.87;10.77;;;;;19.60;100993.00;;;;2080256;28;20228;-73
2023/04/10 02:07:27;;;;;;;12.27;10.90;;;;;19.60;100970.00;;;;2077635;28;20217;-73
2023/04/10 02:08:34;;;;;;;12.65;11.45;;;;;19.60;101000.00;;;;2079591;28;20717;-73
2023/04/10 02:09:56;;;;;;;12.15;11.05;;;;;19.60;100999.00;;;;2080388;28;20229;-73
2023/04/10 02:11:12;;;;;;;11.82;10.73;;;;;19.60;100992.00;;;;2072693;28;20295;-73
2023/04/10 02:12:15;;;;;;;11.77;10.60;;;;;19.60;100993.00;;;;2075507;28;20221;-73
2023/04/10 02:13:16;;;;;;;12.05;10.85;;;;;19.60;100995.00;;;;2075174;28;20292;-73
2023/04/10 02:14:17;;;;;;;11.53;10.47;;;;;19.60;100992.00;;;;2073638;28;20214;-72
2023/04/10 02:15:17;;;;;;;11.20;10.10;;;;;19.60;100973.00;;;;2063293;28;20262;-73
2023/04/10 02:16:18;;;;;;;11.30;10.20;;;;;19.60;100995.00;;;;2067520;28;20763;-73
2023/04/10 02:17:20;;;;;;;11.10;10.00;;;;;19.60;100994.00;;;;2071943;28;20206;-73
2023/04/10 02:18:21;;;;;;;12.25;11.15;;;;;19.60;100989.00;;;;2071362;28;20237;-73
2023/04/10 02:19:24;;;;;;;11.03;10.03;;;;;19.50;100988.00;;;;2071864;28;20604;-73
2023/04/10 02:20:24;;;;;;;11.48;10.38;;;;;19.60;100989.00;;;;2079298;28;20297;-73
2023/04/10 02:21:25;;;;;;;11.77;10.67;;;;;19.60;100985.00;;;;2080050;28;20708;-73
2023/04/10 02:22:26;;;;;;;11.38;10.27;;;;;19.60;100969.00;;;;2070770;28;20981;-73
2023/04/10 02:23:26;;;;;;;11.07;9.97;;;;;19.60;100981.00;;;;2071790;28;20224;-73
2023/04/10 02:24:27;;;;;;;12.13;11.03;;;;;19.50;100970.00;;;;2079634;28;20214;-73
2023/04/10 02:25:29;;;;;;;11.57;10.57;;;;;19.50;100980.00;;;;2071710;28;20237;-73
2023/04/10 02:26:30;;;;;;;12.30;11.10;;;;;19.60;100982.00;;;;2072178;28;20712;-73
2023/04/10 02:27:34;;;;;;;10.77;9.77;;;;;19.50;100982.00;;;;2079100;28;20255;-73
2023/04/10 02:28:37;;;;;;;11.07;10.07;;;;;19.50;100981.00;;;;2080088;28;24148;-73
2023/04/10 02:29:37;;;;;;;11.90;10.75;;;;;19.50;100983.00;;;;2079373;28;20231;-73
2023/04/10 02:30:38;;;;;;;11.67;10.60;;;;;19.50;100980.00;;;;2080645;28;20224;-73
2023/04/10 02:31:39;;;;;;;11.50;10.40;;;;;19.50;100981.00;;;;2079922;28;20205;-73
2023/04/10 02:32:40;;;;;;;11.68;10.57;;;;;19.50;100979.00;;;;2080129;28;20209;-73
2023/04/10 02:33:41;;;;;;;11.13;10.23;;;;;19.50;100977.00;;;;2080201;28;20734;-72
2023/04/10 02:34:42;;;;;;;11.43;10.43;;;;;19.50;100976.00;;;;2079924;28;20796;-73
2023/04/10 02:35:42;;;;;;;11.35;10.25;;;;;19.50;100977.00;;;;2079862;28;20247;-73
2023/04/10 02:36:43;;;;;;;11.43;10.43;;;;;19.50;100974.00;;;;2079184;28;20228;-73
2023/04/10 02:37:45;;;;;;;10.83;9.83;;;;;19.50;100982.00;;;;2080652;28;20209;-74
2023/04/10 02:38:45;;;;;;;11.77;10.68;;;;;19.50;100976.00;;;;2079630;28;20289;-73
2023/04/10 02:39:46;;;;;;;10.53;9.53;;;;;19.50;100979.00;;;;2080062;28;20593;-73
2023/04/10 02:40:46;;;;;;;10.90;9.80;;;;;19.50;100977.00;;;;2079928;28;20635;-73
2023/04/10 02:41:46;;;;;;;10.43;9.50;;;;;19.50;100981.00;;;;2078503;28;20640;-73
2023/04/10 02:42:47;;;;;;;10.83;9.83;;;;;19.50;100981.00;;;;2075049;28;20206;-73
2023/04/10 02:43:47;;;;;;;11.97;10.87;;;;;19.50;100983.00;;;;2079559;28;20592;-73
2023/04/10 02:44:47;;;;;;;11.03;10.03;;;;;19.50;100975.00;;;;2080498;28;20779;-73
2023/04/10 02:45:48;;;;;;;10.30;9.40;;;;;19.50;100979.00;;;;2079495;28;20780;-73
2023/04/10 02:46:48;;;;;;;10.90;9.83;;;;;19.50;100979.00;;;;2080444;28;20228;-73
2023/04/10 02:47:48;;;;;;;10.80;9.80;;;;;19.50;100979.00;;;;2080287;28;20252;-73
2023/04/10 02:48:51;;;;;;;10.13;9.20;;;;;19.50;100979.00;;;;2079878;28;20205;-73
2023/04/10 02:49:51;;;;;;;9.50;8.60;;;;;19.50;100985.00;;;;2079817;28;20248;-73
2023/04/10 02:50:57;;;;;;;10.70;9.70;;;;;19.50;100980.00;;;;2081741;28;20217;-73
2023/04/10 02:51:58;;;;;;;10.35;9.45;;;;;19.50;100981.00;;;;2080330;28;20216;-73
2023/04/10 02:52:58;;;;;;;10.37;9.40;;;;;19.50;100963.00;;;;2081382;28;20202;-73
2023/04/10 02:53:59;;;;;;;10.67;9.73;;;;;19.50;100977.00;;;;2080745;28;20208;-73
2023/04/10 02:54:59;;;;;;;10.27;9.30;;;;;19.50;100985.00;;;;2080544;28;20228;-73
2023/04/10 02:55:59;;;;;;;9.87;8.97;;;;;19.50;100986.00;;;;2080167;28;20255;-73
2023/04/10 02:57:00;;;;;;;10.73;9.77;;;;;19.50;100974.00;;;;2080833;28;20554;-73
2023/04/10 02:58:01;;;;;;;10.37;9.37;;;;;19.40;100985.00;;;;2079689;28;20758;-73
2023/04/10 02:59:01;;;;;;;10.57;9.57;;;;;19.40;100985.00;;;;2079624;28;20480;-73
2023/04/10 03:00:03;;;;;;;10.93;9.90;;;;;19.40;100984.00;;;;2079219;28;20236;-73
2023/04/10 03:01:04;;;;;;;10.27;9.27;;;;;19.40;100983.00;;;;2080646;28;20210;-73
2023/04/10 03:02:04;;;;;;;10.43;9.45;;;;;19.50;100979.00;;;;2078470;28;20382;-73
2023/04/10 03:03:05;;;;;;;9.20;8.30;;;;;19.50;100959.00;;;;2080173;28;20669;-73
2023/04/10 03:04:05;;;;;;;9.53;8.73;;;;;19.40;100976.00;;;;2080565;28;20719;-73
2023/04/10 03:05:07;;;;;;;9.30;8.47;;;;;19.40;100968.00;;;;2079817;28;20693;-73
2023/04/10 03:06:08;;;;;;;10.20;9.25;;;;;19.50;100970.00;;;;2080524;28;20220;-73
2023/04/10 03:07:08;;;;;;;10.10;9.20;;;;;19.40;100899.00;;;;2079403;28;20300;-73
2023/04/10 03:08:08;;;;;;;9.33;8.53;;;;;19.40;100959.00;;;;2080701;28;20589;-73
2023/04/10 03:09:09;;;;;;;10.67;9.70;;;;;19.40;100967.00;;;;2080364;28;20638;-72
2023/04/10 03:10:09;;;;;;;10.20;9.30;;;;;19.50;100970.00;;;;2080077;28;20590;-73
2023/04/10 03:11:09;;;;;;;9.80;8.90;;;;;19.40;100965.00;;;;2080470;28;20217;-73
2023/04/10 03:12:10;;;;;;;10.30;9.37;;;;;19.40;100963.00;;;;2079787;28;20891;-73
2023/04/10 03:13:10;;;;;;;10.00;9.10;;;;;19.40;100962.00;;;;2080649;28;20696;-73
2023/04/10 03:14:11;;;;;;;9.53;8.53;;;;;19.40;100962.00;;;;2079645;28;20717;-73
2023/04/10 03:15:11;;;;;;;9.67;8.87;;;;;19.40;100958.00;;;;2080173;28;20210;-73
2023/04/10 03:16:11;;;;;;;9.80;8.90;;;;;19.40;100964.00;;;;2079994;28;20213;-73
2023/04/10 03:17:12;;;;;;;8.93;8.13;;;;;19.40;100964.00;;;;2080529;28;20220;-73
2023/04/10 03:18:12;;;;;;;12.63;8.80;;;;;19.40;100958.00;;;;2080582;28;20782;-73
2023/04/10 03:19:13;;;;;;;10.37;9.37;;;;;19.40;100965.00;;;;2079118;28;20224;-73
2023/04/10 03:20:14;;;;;;;9.83;8.97;;;;;19.40;100956.00;;;;2080577;28;20217;-73
2023/04/10 03:21:15;;;;;;;9.80;8.98;;;;;19.40;100956.00;;;;2079223;28;20267;-73
2023/04/10 03:22:15;;;;;;;9.43;8.63;;;;;19.40;100955.00;;;;2080177;28;20244;-73
2023/04/10 03:23:15;;;;;;;10.43;9.43;;;;;19.40;100948.00;;;;2079836;28;20707;-73
2023/04/10 03:24:16;;;;;;;9.70;8.80;;;;;19.40;100946.00;;;;2080357;28;20209;-73
2023/04/10 03:25:16;;;;;;;9.97;9.07;;;;;19.40;100945.00;;;;2080286;28;20287;-73
2023/04/10 03:26:16;;;;;;;8.60;7.90;;;;;19.40;100935.00;;;;2079567;28;20696;-73
2023/04/10 03:27:17;;;;;;;8.97;8.20;;;;;19.40;100936.00;;;;2080418;28;20206;-73
2023/04/10 03:28:18;;;;;;;9.63;8.73;;;;;19.40;100947.00;;;;2079414;28;20296;-73
2023/04/10 03:29:18;;;;;;;9.27;8.40;;;;;19.40;100938.00;;;;2080220;28;20686;-73
2023/04/10 03:30:19;;;;;;;9.80;8.97;;;;;19.40;100942.00;;;;2079535;28;20672;-73
2023/04/10 03:31:20;;;;;;;9.53;8.63;;;;;19.40;100935.00;;;;2080388;28;20209;-73
2023/04/10 03:32:20;;;;;;;9.27;8.47;;;;;19.40;100931.00;;;;2079979;28;20693;-73
2023/04/10 03:33:20;;;;;;;9.13;8.33;;;;;19.40;100930.00;;;;2079352;28;20205;-73
2023/04/10 03:34:21;;;;;;;9.17;8.37;;;;;19.40;100931.00;;;;2080313;28;20217;-73
2023/04/10 03:35:21;;;;;;;10.13;9.17;;;;;19.40;100932.00;;;;2080880;28;20209;-73
2023/04/10 03:36:22;;;;;;;9.60;8.77;;;;;19.40;100930.00;;;;2080219;28;20285;-73
2023/04/10 03:37:22;;;;;;;10.13;9.13;;;;;19.40;100926.00;;;;2079092;28;20272;-73
2023/04/10 03:38:22;;;;;;;9.10;8.30;;;;;19.40;100933.00;;;;2080009;28;20221;-73
2023/04/10 03:39:23;;;;;;;9.20;8.40;;;;;19.40;100905.00;;;;2079678;28;20283;-73
2023/04/10 03:40:23;;;;;;;8.90;8.00;;;;;19.40;100927.00;;;;2082096;28;20213;-73
2023/04/10 03:41:24;;;;;;;8.83;8.03;;;;;19.40;100927.00;;;;2080203;28;20872;-73
2023/04/10 03:42:24;;;;;;;9.03;8.23;;;;;19.40;100929.00;;;;2080880;28;20708;-72
2023/04/10 03:43:25;;;;;;;10.23;9.23;;;;;19.40;100924.00;;;;2081351;28;20217;-72
2023/04/10 03:44:26;;;;;;;9.27;8.43;;;;;19.40;100928.00;;;;2079946;28;20213;-73
2023/04/10 03:45:26;;;;;;;8.87;8.13;;;;;19.40;100923.00;;;;2079486;28;20213;-73
2023/04/10 03:46:26;;;;;;;8.57;7.87;;;;;19.40;100921.00;;;;2080181;28;20453;-72
2023/04/10 03:47:27;;;;;;;7.90;7.20;;;;;19.40;100927.00;;;;2079415;28;20206;-73
2023/04/10 03:48:29;;;;;;;9.40;8.60;;;;;19.30;100931.00;;;;2080000;28;20675;-73
2023/04/10 03:49:29;;;;;;;9.02;8.23;;;;;19.30;100928.00;;;;2081787;28;20213;-73
2023/04/10 03:50:29;;;;;;;9.07;8.17;;;;;19.40;100922.00;;;;2082701;28;20719;-73
2023/04/10 03:51:30;;;;;;;8.97;8.17;;;;;19.40;100919.00;;;;2079351;28;20697;-73
2023/04/10 03:52:30;;;;;;;8.70;7.90;;;;;19.40;100929.00;;;;2079888;28;20728;-73
2023/04/10 03:53:34;;;;;;;8.40;7.70;;;;;19.30;100934.00;;;;2080169;28;20654;-73
2023/04/10 03:54:35;;;;;;;8.48;7.68;;;;;19.30;100925.00;;;;2080087;28;20306;-73
2023/04/10 03:55:37;;;;;;;9.23;8.33;;;;;19.40;100926.00;;;;2080039;28;20579;-73
2023/04/10 03:56:37;;;;;;;8.85;8.10;;;;;19.40;100923.00;;;;2079486;28;20697;-73
2023/04/10 03:57:37;;;;;;;9.43;8.53;;;;;19.40;100927.00;;;;2080194;28;20213;-73
2023/04/10 03:58:38;;;;;;;8.60;7.90;;;;;19.30;100923.00;;;;2079364;28;20217;-73
2023/04/10 03:59:38;;;;;;;8.80;8.00;;;;;19.30;100914.00;;;;2079871;28;20226;-73
2023/04/10 04:00:39;;;;;;;9.30;8.50;;;;;19.30;100924.00;;;;2080153;28;20228;-73
2023/04/10 04:01:39;;;;;;;9.10;8.20;;;;;19.30;100929.00;;;;2079183;28;20229;-74
2023/04/10 04:02:39;;;;;;;9.70;8.70;;;;;19.30;100909.00;;;;2080102;28;20216;-73
2023/04/10 04:03:40;;;;;;;8.40;7.70;;;;;19.30;100921.00;;;;2079299;28;20616;-73
2023/04/10 04:04:40;;;;;;;8.50;7.70;;;;;19.30;100923.00;;;;2079393;28;20257;-73
2023/04/10 04:05:40;;;;;;;8.53;7.73;;;;;19.30;100919.00;;;;2078431;28;20223;-72
2023/04/10 04:06:41;;;;;;;9.03;8.23;;;;;19.30;100912.00;;;;2079935;28;20357;-73
2023/04/10 04:07:41;;;;;;;8.37;7.67;;;;;19.30;100926.00;;;;2079350;28;20233;-73
2023/04/10 04:08:41;;;;;;;8.77;7.83;;;;;19.30;100918.00;;;;2078334;28;20224;-73
2023/04/10 04:09:42;;;;;;;8.97;8.17;;;;;19.30;100914.00;;;;2070367;28;20222;-73
2023/04/10 04:10:42;;;;;;;8.53;7.80;;;;;19.30;100914.00;;;;2079296;28;20235;-73
2023/04/10 04:11:42;;;;;;;7.50;6.80;;;;;19.30;100907.00;;;;2079648;28;20219;-73
2023/04/10 04:12:42;;;;;;;7.90;7.20;;;;;19.30;100913.00;;;;2079729;28;20220;-73
2023/04/10 04:13:43;;;;;;;8.37;7.60;;;;;19.30;100912.00;;;;2083991;28;20240;-72
2023/04/10 04:14:44;;;;;;;8.53;7.73;;;;;19.30;100915.00;;;;2079961;28;20241;-73
2023/04/10 04:15:44;;;;;;;7.93;7.23;;;;;19.30;100914.00;;;;2082392;28;20220;-73
2023/04/10 04:16:44;;;;;;;8.93;8.13;;;;;19.30;100911.00;;;;2079971;28;20712;-73
2023/04/10 04:17:45;;;;;;;7.83;7.13;;;;;19.30;100919.00;;;;2079254;28;20221;-73
2023/04/10 04:18:45;;;;;;;8.30;7.50;;;;;19.30;100905.00;;;;2083009;28;20301;-73
2023/04/10 04:19:46;;;;;;;8.20;7.50;;;;;19.30;100910.00;;;;2079944;28;20289;-73
2023/04/10 04:20:46;;;;;;;8.57;7.67;;;;;19.30;100914.00;;;;2078441;28;20605;-73
2023/04/10 04:21:46;;;;;;;9.83;8.83;;;;;19.30;100909.00;;;;2078886;28;20278;-73
2023/04/10 04:22:47;;;;;;;7.93;7.23;;;;;19.30;100911.00;;;;2079208;28;20213;-73
2023/04/10 04:23:47;;;;;;;8.00;7.30;;;;;19.30;100892.00;;;;2079936;28;20588;-73
2023/04/10 04:24:47;;;;;;;8.00;7.30;;;;;19.30;100884.00;;;;2079320;28;20210;-73
2023/04/10 04:25:51;;;;;;;7.60;6.90;;;;;19.30;100907.00;;;;2079785;28;20314;-73
2023/04/10 04:26:51;;;;;;;7.65;6.95;;;;;19.30;100909.00;;;;2079449;28;20220;-73
2023/04/10 04:27:52;;;;;;;8.47;7.67;;;;;19.30;100894.00;;;;2078195;28;20219;-73
2023/04/10 04:28:52;;;;;;;8.33;7.60;;;;;19.30;100904.00;;;;2078893;28;20215;-73
2023/04/10 04:29:52;;;;;;;8.37;7.67;;;;;19.30;100898.00;;;;2081375;28;20221;-73
2023/04/10 04:30:53;;;;;;;7.93;7.17;;;;;19.30;100907.00;;;;2083073;28;20216;-72
2023/04/10 04:31:53;;;;;;;7.60;6.90;;;;;19.30;100908.00;;;;2078885;28;20264;-73
2023/04/10 04:32:53;;;;;;;8.00;7.30;;;;;19.30;100898.00;;;;2087098;28;20229;-73
2023/04/10 04:33:54;;;;;;;8.33;7.60;;;;;19.30;100902.00;;;;2079820;28;20244;-73
2023/04/10 04:34:54;;;;;;;8.40;7.70;;;;;19.30;100897.00;;;;2080501;28;20217;-73
2023/04/10 04:35:55;;;;;;;8.57;7.77;;;;;19.30;100896.00;;;;2079771;28;20219;-73
2023/04/10 04:36:56;;;;;;;7.80;7.00;;;;;19.20;100894.00;;;;2080102;28;20243;-73
2023/04/10 04:37:56;;;;;;;7.43;6.83;;;;;19.20;100901.00;;;;2079414;28;20708;-73
2023/04/10 04:38:56;;;;;;;7.47;6.87;;;;;19.30;100892.00;;;;2072924;28;20236;-72
2023/04/10 04:39:57;;;;;;;7.70;7.00;;;;;19.20;100897.00;;;;2072600;28;20221;-73
2023/04/10 04:40:57;;;;;;;8.07;7.37;;;;;19.30;100892.00;;;;2074112;28;20248;-73
2023/04/10 04:41:57;;;;;;;7.87;7.17;;;;;19.20;100899.00;;;;2069833;28;20214;-72
2023/04/10 04:42:57;;;;;;;7.97;7.20;;;;;19.20;100895.00;;;;2066154;28;20267;-73
2023/04/10 04:43:59;;;;;;;7.57;6.87;;;;;19.20;100890.00;;;;2070532;28;20225;-72
2023/04/10 04:45:00;;;;;;;7.75;7.07;;;;;19.20;100895.00;;;;2071471;28;20216;-72
2023/04/10 04:46:00;;;;;;;8.13;7.43;;;;;19.20;100899.00;;;;2070487;28;20210;-73
2023/04/10 04:47:00;;;;;;;7.73;7.13;;;;;19.30;100895.00;;;;2071501;28;20212;-73
2023/04/10 04:48:01;;;;;;;7.60;6.90;;;;;19.30;100890.00;;;;2071461;28;20200;-72
2023/04/10 04:49:01;;;;;;;7.87;7.17;;;;;19.20;100889.00;;;;2076300;28;20212;-72
2023/04/10 04:50:02;;;;;;;7.30;6.60;;;;;19.30;100890.00;;;;2071829;28;20561;-72
2023/04/10 04:51:05;;;;;;;7.90;7.20;;;;;19.20;100891.00;;;;2070591;28;20288;-72
2023/04/10 04:52:05;;;;;;;7.72;7.03;;;;;19.30;100878.00;;;;2071189;28;20500;-73
2023/04/10 04:53:06;;;;;;;8.13;7.43;;;;;19.20;100886.00;;;;2070358;28;20229;-72
2023/04/10 04:54:07;;;;;;;7.38;6.68;;;;;19.20;100881.00;;;;2071387;28;20235;-73
2023/04/10 04:55:07;;;;;;;7.47;6.87;;;;;19.20;100893.00;;;;2070963;28;20234;-73
2023/04/10 04:56:08;;;;;;;8.13;7.37;;;;;19.20;100891.00;;;;2072653;28;20217;-73
2023/04/10 04:57:08;;;;;;;7.23;6.63;;;;;19.20;100873.00;;;;2071429;28;20216;-73
2023/04/10 04:58:08;;;;;;;7.93;7.23;;;;;19.20;100885.00;;;;2070418;28;20230;-73
2023/04/10 04:59:09;;;;;;;6.53;6.03;;;;;19.20;100896.00;;;;2071041;28;20263;-73
2023/04/10 05:00:09;;;;;;;7.77;6.97;;;;;19.20;100897.00;;;;2070353;28;20216;-72
2023/04/10 05:01:10;;;;;;;7.50;6.80;;;;;19.20;100887.00;;;;2069592;28;20210;-73
2023/04/10 05:02:11;;;;;;;7.73;7.13;;;;;19.20;100899.00;;;;2070675;28;20582;-73